sensor_id;sensor_type;location;lat;lon;timestamp;P1;durP1;ratioP1;P2;durP2;ratioP2
18217;SDS011;9234;49.344;11.120;2023-02-28T00:01:45;4.67;;;2.53;;
18217;SDS011;9234;49.344;11.120;2023-02-28T00:04:13;3.13;;;2.03;;
18217;SDS011;9234;49.344;11.120;2023-02-28T00:06:43;6.53;;;2.53;;
18217;SDS011;9234;49.344;11.120;2023-02-28T00:09:11;8.47;;;2.60;;
18217;SDS011;9234;49.344;11.120;2023-02-28T00:11:39;2.47;;;1.97;;
18217;SDS011;9234;49.344;11.120;2023-02-28T00:14:07;2.93;;;2.10;;
18217;SDS011;9234;49.344;11.120;2023-02-28T00:16:36;4.80;;;3.07;;
18217;SDS011;9234;49.344;11.120;2023-02-28T00:19:04;7.13;;;2.43;;
18217;SDS011;9234;49.344;11.120;2023-02-28T00:21:32;3.03;;;2.30;;
18217;SDS011;9234;49.344;11.120;2023-02-28T00:24:03;3.63;;;2.63;;
18217;SDS011;9234;49.344;11.120;2023-02-28T00:26:34;4.33;;;2.10;;
18217;SDS011;9234;49.344;11.120;2023-02-28T00:29:02;5.90;;;2.50;;
18217;SDS011;9234;49.344;11.120;2023-02-28T00:31:31;8.53;;;2.43;;
18217;SDS011;9234;49.344;11.120;2023-02-28T00:33:59;3.43;;;2.43;;
18217;SDS011;9234;49.344;11.120;2023-02-28T00:36:27;4.77;;;2.50;;
18217;SDS011;9234;49.344;11.120;2023-02-28T00:38:55;6.37;;;2.90;;
18217;SDS011;9234;49.344;11.120;2023-02-28T00:41:28;6.10;;;2.30;;
18217;SDS011;9234;49.344;11.120;2023-02-28T00:43:56;3.53;;;2.13;;
18217;SDS011;9234;49.344;11.120;2023-02-28T00:46:24;3.80;;;2.60;;
18217;SDS011;9234;49.344;11.120;2023-02-28T00:48:52;5.00;;;3.20;;
18217;SDS011;9234;49.344;11.120;2023-02-28T00:51:21;5.03;;;2.80;;
18217;SDS011;9234;49.344;11.120;2023-02-28T00:53:49;4.97;;;2.93;;
18217;SDS011;9234;49.344;11.120;2023-02-28T00:56:17;3.17;;;2.50;;
18217;SDS011;9234;49.344;11.120;2023-02-28T00:58:47;4.67;;;2.47;;
18217;SDS011;9234;49.344;11.120;2023-02-28T01:01:18;4.27;;;2.50;;
18217;SDS011;9234;49.344;11.120;2023-02-28T01:03:46;3.87;;;2.40;;
18217;SDS011;9234;49.344;11.120;2023-02-28T01:06:14;4.47;;;3.03;;
18217;SDS011;9234;49.344;11.120;2023-02-28T01:08:42;3.87;;;2.57;;
18217;SDS011;9234;49.344;11.120;2023-02-28T01:11:11;5.83;;;2.60;;
18217;SDS011;9234;49.344;11.120;2023-02-28T01:13:43;5.30;;;2.67;;
18217;SDS011;9234;49.344;11.120;2023-02-28T01:16:13;5.97;;;2.77;;
18217;SDS011;9234;49.344;11.120;2023-02-28T01:18:43;5.67;;;2.73;;
18217;SDS011;9234;49.344;11.120;2023-02-28T01:21:13;4.87;;;3.00;;
18217;SDS011;9234;49.344;11.120;2023-02-28T01:23:43;4.90;;;2.70;;
18217;SDS011;9234;49.344;11.120;2023-02-28T01:26:12;4.90;;;2.97;;
18217;SDS011;9234;49.344;11.120;2023-02-28T01:28:43;4.43;;;2.57;;
18217;SDS011;9234;49.344;11.120;2023-02-28T01:31:14;8.23;;;2.57;;
18217;SDS011;9234;49.344;11.120;2023-02-28T01:33:42;5.07;;;2.90;;
18217;SDS011;9234;49.344;11.120;2023-02-28T01:36:12;4.63;;;3.10;;
18217;SDS011;9234;49.344;11.120;2023-02-28T01:38:42;9.33;;;2.97;;
18217;SDS011;9234;49.344;11.120;2023-02-28T01:41:14;3.50;;;2.60;;
18217;SDS011;9234;49.344;11.120;2023-02-28T01:43:53;4.80;;;2.83;;
18217;SDS011;9234;49.344;11.120;2023-02-28T01:46:33;4.67;;;3.17;;
18217;SDS011;9234;49.344;11.120;2023-02-28T01:49:06;6.27;;;3.47;;
18217;SDS011;9234;49.344;11.120;2023-02-28T01:51:41;4.43;;;2.80;;
18217;SDS011;9234;49.344;11.120;2023-02-28T01:54:18;5.20;;;3.03;;
18217;SDS011;9234;49.344;11.120;2023-02-28T01:56:52;5.93;;;3.07;;
18217;SDS011;9234;49.344;11.120;2023-02-28T01:59:27;6.87;;;3.27;;
18217;SDS011;9234;49.344;11.120;2023-02-28T02:02:02;3.97;;;2.60;;
18217;SDS011;9234;49.344;11.120;2023-02-28T02:04:32;5.80;;;2.90;;
18217;SDS011;9234;49.344;11.120;2023-02-28T02:07:06;6.17;;;3.27;;
18217;SDS011;9234;49.344;11.120;2023-02-28T02:09:36;5.07;;;3.03;;
18217;SDS011;9234;49.344;11.120;2023-02-28T02:12:06;5.20;;;3.03;;
18217;SDS011;9234;49.344;11.120;2023-02-28T02:14:48;4.33;;;3.00;;
18217;SDS011;9234;49.344;11.120;2023-02-28T02:17:32;4.93;;;2.80;;
18217;SDS011;9234;49.344;11.120;2023-02-28T02:20:23;7.23;;;3.97;;
18217;SDS011;9234;49.344;11.120;2023-02-28T02:23:49;4.83;;;2.80;;
18217;SDS011;9234;49.344;11.120;2023-02-28T02:27:15;4.40;;;3.00;;
18217;SDS011;9234;49.344;11.120;2023-02-28T02:30:02;5.83;;;3.33;;
18217;SDS011;9234;49.344;11.120;2023-02-28T02:33:16;6.03;;;3.20;;
18217;SDS011;9234;49.344;11.120;2023-02-28T02:36:35;5.77;;;3.23;;
18217;SDS011;9234;49.344;11.120;2023-02-28T02:39:14;5.80;;;3.47;;
18217;SDS011;9234;49.344;11.120;2023-02-28T02:41:50;6.50;;;3.33;;
18217;SDS011;9234;49.344;11.120;2023-02-28T02:44:21;4.50;;;3.03;;
18217;SDS011;9234;49.344;11.120;2023-02-28T02:46:57;6.30;;;3.63;;
18217;SDS011;9234;49.344;11.120;2023-02-28T02:49:31;4.90;;;3.03;;
18217;SDS011;9234;49.344;11.120;2023-02-28T02:52:04;6.07;;;2.87;;
18217;SDS011;9234;49.344;11.120;2023-02-28T02:54:38;7.97;;;2.77;;
18217;SDS011;9234;49.344;11.120;2023-02-28T02:57:12;5.53;;;3.20;;
18217;SDS011;9234;49.344;11.120;2023-02-28T02:59:50;6.30;;;2.93;;
18217;SDS011;9234;49.344;11.120;2023-02-28T03:02:23;6.27;;;3.10;;
18217;SDS011;9234;49.344;11.120;2023-02-28T03:04:56;4.77;;;2.70;;
18217;SDS011;9234;49.344;11.120;2023-02-28T03:07:30;5.47;;;2.87;;
18217;SDS011;9234;49.344;11.120;2023-02-28T03:09:58;5.30;;;3.33;;
18217;SDS011;9234;49.344;11.120;2023-02-28T03:12:28;3.83;;;2.57;;
18217;SDS011;9234;49.344;11.120;2023-02-28T03:15:10;6.17;;;3.23;;
18217;SDS011;9234;49.344;11.120;2023-02-28T03:17:55;7.33;;;3.97;;
18217;SDS011;9234;49.344;11.120;2023-02-28T03:20:36;5.90;;;2.73;;
18217;SDS011;9234;49.344;11.120;2023-02-28T03:23:19;4.20;;;2.50;;
18217;SDS011;9234;49.344;11.120;2023-02-28T03:25:56;6.67;;;3.20;;
18217;SDS011;9234;49.344;11.120;2023-02-28T03:28:31;6.93;;;3.17;;
18217;SDS011;9234;49.344;11.120;2023-02-28T03:31:13;4.63;;;2.77;;
18217;SDS011;9234;49.344;11.120;2023-02-28T03:33:51;5.73;;;2.83;;
18217;SDS011;9234;49.344;11.120;2023-02-28T03:36:29;5.13;;;3.07;;
18217;SDS011;9234;49.344;11.120;2023-02-28T03:39:12;5.20;;;2.97;;
18217;SDS011;9234;49.344;11.120;2023-02-28T03:41:48;7.07;;;3.90;;
18217;SDS011;9234;49.344;11.120;2023-02-28T03:44:22;7.07;;;3.47;;
18217;SDS011;9234;49.344;11.120;2023-02-28T03:46:58;5.60;;;3.43;;
18217;SDS011;9234;49.344;11.120;2023-02-28T03:49:34;5.13;;;3.27;;
18217;SDS011;9234;49.344;11.120;2023-02-28T03:52:09;6.67;;;3.23;;
18217;SDS011;9234;49.344;11.120;2023-02-28T03:54:41;4.27;;;2.67;;
18217;SDS011;9234;49.344;11.120;2023-02-28T03:57:15;4.97;;;3.23;;
18217;SDS011;9234;49.344;11.120;2023-02-28T03:59:54;5.23;;;3.83;;
18217;SDS011;9234;49.344;11.120;2023-02-28T04:02:37;5.43;;;3.50;;
18217;SDS011;9234;49.344;11.120;2023-02-28T04:05:07;5.67;;;3.90;;
18217;SDS011;9234;49.344;11.120;2023-02-28T04:07:35;6.20;;;3.90;;
18217;SDS011;9234;49.344;11.120;2023-02-28T04:10:06;4.43;;;3.50;;
18217;SDS011;9234;49.344;11.120;2023-02-28T04:12:36;5.03;;;3.50;;
18217;SDS011;9234;49.344;11.120;2023-02-28T04:15:05;6.73;;;3.30;;
18217;SDS011;9234;49.344;11.120;2023-02-28T04:17:35;6.57;;;4.30;;
18217;SDS011;9234;49.344;11.120;2023-02-28T04:20:03;6.47;;;4.00;;
18217;SDS011;9234;49.344;11.120;2023-02-28T04:22:35;7.60;;;3.90;;
18217;SDS011;9234;49.344;11.120;2023-02-28T04:25:06;7.47;;;4.60;;
18217;SDS011;9234;49.344;11.120;2023-02-28T04:27:35;8.47;;;4.30;;
18217;SDS011;9234;49.344;11.120;2023-02-28T04:30:04;9.87;;;5.03;;
18217;SDS011;9234;49.344;11.120;2023-02-28T04:32:34;6.30;;;4.03;;
18217;SDS011;9234;49.344;11.120;2023-02-28T04:35:02;6.47;;;4.27;;
18217;SDS011;9234;49.344;11.120;2023-02-28T04:37:31;9.97;;;5.27;;
18217;SDS011;9234;49.344;11.120;2023-02-28T04:40:01;8.83;;;4.57;;
18217;SDS011;9234;49.344;11.120;2023-02-28T04:42:31;6.60;;;4.17;;
18217;SDS011;9234;49.344;11.120;2023-02-28T04:45:02;11.47;;;4.50;;
18217;SDS011;9234;49.344;11.120;2023-02-28T04:47:31;6.67;;;4.33;;
18217;SDS011;9234;49.344;11.120;2023-02-28T04:50:00;6.70;;;4.60;;
18217;SDS011;9234;49.344;11.120;2023-02-28T04:52:28;8.07;;;4.83;;
18217;SDS011;9234;49.344;11.120;2023-02-28T04:54:56;9.90;;;4.47;;
18217;SDS011;9234;49.344;11.120;2023-02-28T04:57:24;6.43;;;4.50;;
18217;SDS011;9234;49.344;11.120;2023-02-28T04:59:54;6.80;;;3.87;;
18217;SDS011;9234;49.344;11.120;2023-02-28T05:02:22;6.30;;;4.57;;
18217;SDS011;9234;49.344;11.120;2023-02-28T05:04:50;7.30;;;4.07;;
18217;SDS011;9234;49.344;11.120;2023-02-28T05:07:19;9.80;;;4.57;;
18217;SDS011;9234;49.344;11.120;2023-02-28T05:09:47;9.63;;;5.27;;
18217;SDS011;9234;49.344;11.120;2023-02-28T05:12:15;7.87;;;4.23;;
18217;SDS011;9234;49.344;11.120;2023-02-28T05:14:43;9.20;;;4.70;;
18217;SDS011;9234;49.344;11.120;2023-02-28T05:17:13;8.57;;;4.70;;
18217;SDS011;9234;49.344;11.120;2023-02-28T05:19:41;12.33;;;5.10;;
18217;SDS011;9234;49.344;11.120;2023-02-28T05:22:12;5.97;;;4.33;;
18217;SDS011;9234;49.344;11.120;2023-02-28T05:24:42;8.50;;;4.97;;
18217;SDS011;9234;49.344;11.120;2023-02-28T05:27:11;6.97;;;5.10;;
18217;SDS011;9234;49.344;11.120;2023-02-28T05:29:39;6.73;;;5.07;;
18217;SDS011;9234;49.344;11.120;2023-02-28T05:32:09;6.33;;;4.90;;
18217;SDS011;9234;49.344;11.120;2023-02-28T05:34:40;9.40;;;5.23;;
18217;SDS011;9234;49.344;11.120;2023-02-28T05:37:10;8.50;;;4.67;;
18217;SDS011;9234;49.344;11.120;2023-02-28T05:39:40;6.63;;;4.50;;
18217;SDS011;9234;49.344;11.120;2023-02-28T05:42:09;8.40;;;5.20;;
18217;SDS011;9234;49.344;11.120;2023-02-28T05:44:37;8.27;;;4.77;;
18217;SDS011;9234;49.344;11.120;2023-02-28T05:47:05;9.23;;;5.27;;
18217;SDS011;9234;49.344;11.120;2023-02-28T05:49:35;9.00;;;5.90;;
18217;SDS011;9234;49.344;11.120;2023-02-28T05:52:03;8.00;;;4.50;;
18217;SDS011;9234;49.344;11.120;2023-02-28T05:54:32;8.47;;;5.17;;
18217;SDS011;9234;49.344;11.120;2023-02-28T05:57:00;9.23;;;5.07;;
18217;SDS011;9234;49.344;11.120;2023-02-28T05:59:35;7.97;;;5.43;;
18217;SDS011;9234;49.344;11.120;2023-02-28T06:02:06;9.03;;;4.80;;
18217;SDS011;9234;49.344;11.120;2023-02-28T06:04:41;8.20;;;5.30;;
18217;SDS011;9234;49.344;11.120;2023-02-28T06:07:09;7.67;;;5.27;;
18217;SDS011;9234;49.344;11.120;2023-02-28T06:09:38;10.47;;;4.90;;
18217;SDS011;9234;49.344;11.120;2023-02-28T06:12:06;8.43;;;5.03;;
18217;SDS011;9234;49.344;11.120;2023-02-28T06:14:36;8.33;;;5.20;;
18217;SDS011;9234;49.344;11.120;2023-02-28T06:17:04;9.07;;;5.00;;
18217;SDS011;9234;49.344;11.120;2023-02-28T06:19:32;8.53;;;5.53;;
18217;SDS011;9234;49.344;11.120;2023-02-28T06:22:02;9.27;;;5.80;;
18217;SDS011;9234;49.344;11.120;2023-02-28T06:24:30;9.37;;;6.37;;
18217;SDS011;9234;49.344;11.120;2023-02-28T06:26:58;9.00;;;5.33;;
18217;SDS011;9234;49.344;11.120;2023-02-28T06:29:31;11.17;;;5.90;;
18217;SDS011;9234;49.344;11.120;2023-02-28T06:31:59;9.57;;;5.70;;
18217;SDS011;9234;49.344;11.120;2023-02-28T06:34:28;9.23;;;5.77;;
18217;SDS011;9234;49.344;11.120;2023-02-28T06:36:57;10.37;;;5.40;;
18217;SDS011;9234;49.344;11.120;2023-02-28T06:39:29;9.30;;;5.77;;
18217;SDS011;9234;49.344;11.120;2023-02-28T06:41:58;12.30;;;6.77;;
18217;SDS011;9234;49.344;11.120;2023-02-28T06:44:27;8.70;;;6.10;;
18217;SDS011;9234;49.344;11.120;2023-02-28T06:47:01;8.70;;;5.37;;
18217;SDS011;9234;49.344;11.120;2023-02-28T06:49:31;7.53;;;5.07;;
18217;SDS011;9234;49.344;11.120;2023-02-28T06:52:02;8.70;;;5.93;;
18217;SDS011;9234;49.344;11.120;2023-02-28T06:54:32;9.30;;;5.43;;
18217;SDS011;9234;49.344;11.120;2023-02-28T06:57:00;13.27;;;6.53;;
18217;SDS011;9234;49.344;11.120;2023-02-28T06:59:29;8.57;;;5.60;;
18217;SDS011;9234;49.344;11.120;2023-02-28T07:01:57;11.70;;;6.23;;
18217;SDS011;9234;49.344;11.120;2023-02-28T07:04:26;7.80;;;5.10;;
18217;SDS011;9234;49.344;11.120;2023-02-28T07:06:55;11.50;;;5.80;;
18217;SDS011;9234;49.344;11.120;2023-02-28T07:09:23;10.53;;;5.97;;
18217;SDS011;9234;49.344;11.120;2023-02-28T07:11:57;8.77;;;5.63;;
18217;SDS011;9234;49.344;11.120;2023-02-28T07:14:26;9.93;;;5.87;;
18217;SDS011;9234;49.344;11.120;2023-02-28T07:16:54;13.20;;;6.40;;
18217;SDS011;9234;49.344;11.120;2023-02-28T07:19:23;10.40;;;5.60;;
18217;SDS011;9234;49.344;11.120;2023-02-28T07:21:51;9.60;;;5.70;;
18217;SDS011;9234;49.344;11.120;2023-02-28T07:24:20;9.73;;;5.50;;
18217;SDS011;9234;49.344;11.120;2023-02-28T07:26:52;11.00;;;5.67;;
18217;SDS011;9234;49.344;11.120;2023-02-28T07:29:21;9.43;;;5.50;;
18217;SDS011;9234;49.344;11.120;2023-02-28T07:31:49;9.07;;;5.20;;
18217;SDS011;9234;49.344;11.120;2023-02-28T07:34:19;10.00;;;5.87;;
18217;SDS011;9234;49.344;11.120;2023-02-28T07:36:48;11.03;;;5.80;;
18217;SDS011;9234;49.344;11.120;2023-02-28T07:39:20;9.77;;;6.70;;
18217;SDS011;9234;49.344;11.120;2023-02-28T07:41:49;9.67;;;5.83;;
18217;SDS011;9234;49.344;11.120;2023-02-28T07:44:17;9.93;;;6.20;;
18217;SDS011;9234;49.344;11.120;2023-02-28T07:46:46;11.90;;;5.87;;
18217;SDS011;9234;49.344;11.120;2023-02-28T07:49:15;6.63;;;5.10;;
18217;SDS011;9234;49.344;11.120;2023-02-28T07:51:43;9.93;;;5.47;;
18217;SDS011;9234;49.344;11.120;2023-02-28T07:54:11;9.13;;;5.53;;
18217;SDS011;9234;49.344;11.120;2023-02-28T07:56:39;9.60;;;5.57;;
18217;SDS011;9234;49.344;11.120;2023-02-28T07:59:08;9.27;;;5.30;;
18217;SDS011;9234;49.344;11.120;2023-02-28T08:01:36;10.40;;;5.70;;
18217;SDS011;9234;49.344;11.120;2023-02-28T08:04:05;11.57;;;6.33;;
18217;SDS011;9234;49.344;11.120;2023-02-28T08:06:34;8.77;;;5.43;;
18217;SDS011;9234;49.344;11.120;2023-02-28T08:09:02;10.27;;;6.43;;
18217;SDS011;9234;49.344;11.120;2023-02-28T08:11:30;11.83;;;6.27;;
18217;SDS011;9234;49.344;11.120;2023-02-28T08:13:58;9.53;;;5.97;;
18217;SDS011;9234;49.344;11.120;2023-02-28T08:16:27;9.10;;;5.50;;
18217;SDS011;9234;49.344;11.120;2023-02-28T08:18:55;9.07;;;5.93;;
18217;SDS011;9234;49.344;11.120;2023-02-28T08:21:24;11.00;;;6.57;;
18217;SDS011;9234;49.344;11.120;2023-02-28T08:23:53;9.27;;;6.20;;
18217;SDS011;9234;49.344;11.120;2023-02-28T08:26:23;9.23;;;5.33;;
18217;SDS011;9234;49.344;11.120;2023-02-28T08:28:51;8.07;;;5.80;;
18217;SDS011;9234;49.344;11.120;2023-02-28T08:31:22;9.10;;;6.70;;
18217;SDS011;9234;49.344;11.120;2023-02-28T08:33:50;8.63;;;6.13;;
18217;SDS011;9234;49.344;11.120;2023-02-28T08:36:19;10.30;;;7.37;;
18217;SDS011;9234;49.344;11.120;2023-02-28T08:38:49;9.37;;;6.77;;
18217;SDS011;9234;49.344;11.120;2023-02-28T08:41:17;11.60;;;7.20;;
18217;SDS011;9234;49.344;11.120;2023-02-28T08:43:45;8.60;;;6.87;;
18217;SDS011;9234;49.344;11.120;2023-02-28T08:46:13;8.47;;;6.53;;
18217;SDS011;9234;49.344;11.120;2023-02-28T08:48:42;11.20;;;7.10;;
18217;SDS011;9234;49.344;11.120;2023-02-28T08:51:11;13.77;;;7.40;;
18217;SDS011;9234;49.344;11.120;2023-02-28T08:53:42;10.27;;;6.20;;
18217;SDS011;9234;49.344;11.120;2023-02-28T08:56:12;10.20;;;7.10;;
18217;SDS011;9234;49.344;11.120;2023-02-28T08:58:43;12.33;;;7.67;;
18217;SDS011;9234;49.344;11.120;2023-02-28T09:01:14;12.77;;;7.17;;
18217;SDS011;9234;49.344;11.120;2023-02-28T09:03:47;14.30;;;8.13;;
18217;SDS011;9234;49.344;11.120;2023-02-28T09:06:18;12.73;;;8.00;;
18217;SDS011;9234;49.344;11.120;2023-02-28T09:08:48;9.03;;;6.77;;
18217;SDS011;9234;49.344;11.120;2023-02-28T09:11:17;9.90;;;6.67;;
18217;SDS011;9234;49.344;11.120;2023-02-28T09:13:46;9.27;;;6.73;;
18217;SDS011;9234;49.344;11.120;2023-02-28T09:16:15;10.03;;;6.00;;
18217;SDS011;9234;49.344;11.120;2023-02-28T09:18:44;9.17;;;6.87;;
18217;SDS011;9234;49.344;11.120;2023-02-28T09:21:14;11.40;;;7.63;;
18217;SDS011;9234;49.344;11.120;2023-02-28T09:23:45;8.43;;;6.57;;
18217;SDS011;9234;49.344;11.120;2023-02-28T09:26:16;9.60;;;6.30;;
18217;SDS011;9234;49.344;11.120;2023-02-28T09:28:49;8.60;;;6.50;;
18217;SDS011;9234;49.344;11.120;2023-02-28T09:31:23;11.13;;;7.20;;
18217;SDS011;9234;49.344;11.120;2023-02-28T09:33:54;8.63;;;6.50;;
18217;SDS011;9234;49.344;11.120;2023-02-28T09:36:25;13.90;;;6.97;;
18217;SDS011;9234;49.344;11.120;2023-02-28T09:39:09;9.33;;;6.80;;
18217;SDS011;9234;49.344;11.120;2023-02-28T09:41:40;10.97;;;6.83;;
18217;SDS011;9234;49.344;11.120;2023-02-28T09:44:16;8.97;;;6.17;;
18217;SDS011;9234;49.344;11.120;2023-02-28T09:46:54;10.00;;;7.00;;
18217;SDS011;9234;49.344;11.120;2023-02-28T09:49:31;10.97;;;6.90;;
18217;SDS011;9234;49.344;11.120;2023-02-28T09:52:09;7.37;;;6.30;;
18217;SDS011;9234;49.344;11.120;2023-02-28T09:54:41;9.23;;;7.13;;
18217;SDS011;9234;49.344;11.120;2023-02-28T09:57:13;9.33;;;7.03;;
18217;SDS011;9234;49.344;11.120;2023-02-28T09:59:51;9.20;;;6.50;;
18217;SDS011;9234;49.344;11.120;2023-02-28T10:02:50;9.00;;;6.33;;
18217;SDS011;9234;49.344;11.120;2023-02-28T10:05:33;8.63;;;6.13;;
18217;SDS011;9234;49.344;11.120;2023-02-28T10:08:11;9.60;;;6.70;;
18217;SDS011;9234;49.344;11.120;2023-02-28T10:10:45;9.50;;;6.60;;
18217;SDS011;9234;49.344;11.120;2023-02-28T10:13:21;9.60;;;6.63;;
18217;SDS011;9234;49.344;11.120;2023-02-28T10:15:58;6.60;;;5.80;;
18217;SDS011;9234;49.344;11.120;2023-02-28T10:18:37;7.50;;;5.97;;
18217;SDS011;9234;49.344;11.120;2023-02-28T10:21:15;9.20;;;6.23;;
18217;SDS011;9234;49.344;11.120;2023-02-28T10:23:49;9.27;;;6.33;;
18217;SDS011;9234;49.344;11.120;2023-02-28T10:26:31;9.10;;;6.30;;
18217;SDS011;9234;49.344;11.120;2023-02-28T10:29:02;8.17;;;5.10;;
18217;SDS011;9234;49.344;11.120;2023-02-28T10:31:31;7.37;;;6.00;;
18217;SDS011;9234;49.344;11.120;2023-02-28T10:33:59;7.27;;;6.37;;
18217;SDS011;9234;49.344;11.120;2023-02-28T10:36:29;9.47;;;6.30;;
18217;SDS011;9234;49.344;11.120;2023-02-28T10:39:00;6.73;;;5.90;;
18217;SDS011;9234;49.344;11.120;2023-02-28T10:41:29;29.13;;;19.37;;
18217;SDS011;9234;49.344;11.120;2023-02-28T10:44:16;13.77;;;9.97;;
18217;SDS011;9234;49.344;11.120;2023-02-28T10:46:49;9.77;;;7.03;;
18217;SDS011;9234;49.344;11.120;2023-02-28T10:49:20;13.73;;;8.50;;
18217;SDS011;9234;49.344;11.120;2023-02-28T10:51:51;8.50;;;6.83;;
18217;SDS011;9234;49.344;11.120;2023-02-28T10:54:24;12.20;;;7.07;;
18217;SDS011;9234;49.344;11.120;2023-02-28T10:57:08;10.73;;;7.43;;
18217;SDS011;9234;49.344;11.120;2023-02-28T10:59:51;8.07;;;6.23;;
18217;SDS011;9234;49.344;11.120;2023-02-28T11:02:33;8.33;;;6.40;;
18217;SDS011;9234;49.344;11.120;2023-02-28T11:07:58;9.27;;;6.33;;
18217;SDS011;9234;49.344;11.120;2023-02-28T11:10:34;10.10;;;6.43;;
18217;SDS011;9234;49.344;11.120;2023-02-28T11:13:03;9.43;;;6.60;;
18217;SDS011;9234;49.344;11.120;2023-02-28T11:15:33;8.27;;;6.40;;
18217;SDS011;9234;49.344;11.120;2023-02-28T11:18:06;9.13;;;6.67;;
18217;SDS011;9234;49.344;11.120;2023-02-28T11:20:51;9.43;;;6.17;;
18217;SDS011;9234;49.344;11.120;2023-02-28T11:23:24;10.10;;;6.00;;
18217;SDS011;9234;49.344;11.120;2023-02-28T11:25:56;7.97;;;6.20;;
18217;SDS011;9234;49.344;11.120;2023-02-28T11:28:29;7.27;;;6.20;;
18217;SDS011;9234;49.344;11.120;2023-02-28T11:31:01;8.53;;;7.10;;
18217;SDS011;9234;49.344;11.120;2023-02-28T11:33:42;7.83;;;6.23;;
18217;SDS011;9234;49.344;11.120;2023-02-28T11:36:16;8.83;;;6.83;;
18217;SDS011;9234;49.344;11.120;2023-02-28T11:38:48;9.33;;;7.27;;
18217;SDS011;9234;49.344;11.120;2023-02-28T11:41:24;8.93;;;6.20;;
18217;SDS011;9234;49.344;11.120;2023-02-28T11:44:29;8.73;;;6.30;;
18217;SDS011;9234;49.344;11.120;2023-02-28T11:47:15;7.75;;;6.47;;
18217;SDS011;9234;49.344;11.120;2023-02-28T11:49:59;7.78;;;6.50;;
18217;SDS011;9234;49.344;11.120;2023-02-28T11:52:48;11.18;;;7.18;;
18217;SDS011;9234;49.344;11.120;2023-02-28T11:55:23;7.67;;;6.67;;
18217;SDS011;9234;49.344;11.120;2023-02-28T11:58:05;10.10;;;6.40;;
18217;SDS011;9234;49.344;11.120;2023-02-28T12:04:03;10.77;;;6.77;;
18217;SDS011;9234;49.344;11.120;2023-02-28T12:06:45;10.60;;;7.37;;
18217;SDS011;9234;49.344;11.120;2023-02-28T12:09:32;10.15;;;6.50;;
18217;SDS011;9234;49.344;11.120;2023-02-28T12:12:25;12.10;;;6.90;;
18217;SDS011;9234;49.344;11.120;2023-02-28T12:15:23;8.85;;;6.93;;
18217;SDS011;9234;49.344;11.120;2023-02-28T12:18:16;9.45;;;6.70;;
18217;SDS011;9234;49.344;11.120;2023-02-28T12:21:14;9.45;;;6.63;;
18217;SDS011;9234;49.344;11.120;2023-02-28T12:24:01;10.63;;;7.22;;
18217;SDS011;9234;49.344;11.120;2023-02-28T12:26:49;8.50;;;6.85;;
18217;SDS011;9234;49.344;11.120;2023-02-28T12:29:21;9.77;;;7.03;;
18217;SDS011;9234;49.344;11.120;2023-02-28T12:31:55;10.40;;;7.75;;
18217;SDS011;9234;49.344;11.120;2023-02-28T12:34:31;9.95;;;7.72;;
18217;SDS011;9234;49.344;11.120;2023-02-28T12:37:07;9.07;;;6.40;;
18217;SDS011;9234;49.344;11.120;2023-02-28T12:39:45;9.02;;;7.63;;
18217;SDS011;9234;49.344;11.120;2023-02-28T12:42:19;8.35;;;7.30;;
18217;SDS011;9234;49.344;11.120;2023-02-28T12:44:56;10.73;;;7.65;;
18217;SDS011;9234;49.344;11.120;2023-02-28T12:47:29;9.15;;;7.22;;
18217;SDS011;9234;49.344;11.120;2023-02-28T12:49:58;7.93;;;6.78;;
18217;SDS011;9234;49.344;11.120;2023-02-28T12:52:35;17.95;;;9.63;;
18217;SDS011;9234;49.344;11.120;2023-02-28T12:55:20;12.20;;;8.48;;
18217;SDS011;9234;49.344;11.120;2023-02-28T12:57:59;9.07;;;7.80;;
18217;SDS011;9234;49.344;11.120;2023-02-28T13:00:36;9.50;;;7.20;;
18217;SDS011;9234;49.344;11.120;2023-02-28T13:03:26;9.80;;;7.10;;
18217;SDS011;9234;49.344;11.120;2023-02-28T13:06:34;8.50;;;6.90;;
18217;SDS011;9234;49.344;11.120;2023-02-28T13:09:21;8.55;;;7.38;;
18217;SDS011;9234;49.344;11.120;2023-02-28T13:11:49;9.00;;;7.07;;
18217;SDS011;9234;49.344;11.120;2023-02-28T13:14:21;9.07;;;6.85;;
18217;SDS011;9234;49.344;11.120;2023-02-28T13:16:58;8.23;;;6.97;;
18217;SDS011;9234;49.344;11.120;2023-02-28T13:19:31;21.25;;;15.93;;
18217;SDS011;9234;49.344;11.120;2023-02-28T13:22:03;8.18;;;6.95;;
18217;SDS011;9234;49.344;11.120;2023-02-28T13:24:45;13.30;;;7.40;;
18217;SDS011;9234;49.344;11.120;2023-02-28T13:27:22;14.98;;;12.15;;
18217;SDS011;9234;49.344;11.120;2023-02-28T13:33:27;9.13;;;8.10;;
18217;SDS011;9234;49.344;11.120;2023-02-28T13:36:07;8.68;;;7.68;;
18217;SDS011;9234;49.344;11.120;2023-02-28T13:38:50;9.52;;;7.80;;
18217;SDS011;9234;49.344;11.120;2023-02-28T13:41:43;10.30;;;9.27;;
18217;SDS011;9234;49.344;11.120;2023-02-28T13:44:17;9.80;;;7.90;;
18217;SDS011;9234;49.344;11.120;2023-02-28T13:50:15;9.93;;;7.43;;
18217;SDS011;9234;49.344;11.120;2023-02-28T13:59:18;9.60;;;7.00;;
18217;SDS011;9234;49.344;11.120;2023-02-28T14:02:03;10.30;;;8.10;;
18217;SDS011;9234;49.344;11.120;2023-02-28T14:04:59;21.30;;;14.10;;
18217;SDS011;9234;49.344;11.120;2023-02-28T14:07:33;21.38;;;13.32;;
18217;SDS011;9234;49.344;11.120;2023-02-28T14:10:21;16.08;;;12.57;;
18217;SDS011;9234;49.344;11.120;2023-02-28T14:12:57;11.25;;;9.52;;
18217;SDS011;9234;49.344;11.120;2023-02-28T14:15:39;9.13;;;7.72;;
18217;SDS011;9234;49.344;11.120;2023-02-28T14:18:27;9.55;;;8.27;;
18217;SDS011;9234;49.344;11.120;2023-02-28T14:21:08;15.52;;;12.35;;
18217;SDS011;9234;49.344;11.120;2023-02-28T14:23:56;17.27;;;12.48;;
18217;SDS011;9234;49.344;11.120;2023-02-28T14:27:20;26.77;;;21.83;;
18217;SDS011;9234;49.344;11.120;2023-02-28T14:30:14;9.32;;;7.82;;
18217;SDS011;9234;49.344;11.120;2023-02-28T14:36:12;8.52;;;7.70;;
18217;SDS011;9234;49.344;11.120;2023-02-28T14:38:49;38.85;;;22.45;;
18217;SDS011;9234;49.344;11.120;2023-02-28T14:41:28;17.33;;;11.65;;
18217;SDS011;9234;49.344;11.120;2023-02-28T14:44:01;11.98;;;9.57;;
18217;SDS011;9234;49.344;11.120;2023-02-28T14:46:42;44.65;;;27.40;;
18217;SDS011;9234;49.344;11.120;2023-02-28T14:49:15;24.27;;;16.42;;
18217;SDS011;9234;49.344;11.120;2023-02-28T14:51:48;17.08;;;12.80;;
18217;SDS011;9234;49.344;11.120;2023-02-28T14:54:19;16.90;;;12.52;;
18217;SDS011;9234;49.344;11.120;2023-02-28T14:56:51;22.88;;;16.17;;
18217;SDS011;9234;49.344;11.120;2023-02-28T14:59:26;29.02;;;20.17;;
18217;SDS011;9234;49.344;11.120;2023-02-28T15:02:16;21.02;;;15.43;;
18217;SDS011;9234;49.344;11.120;2023-02-28T15:04:54;25.40;;;16.38;;
18217;SDS011;9234;49.344;11.120;2023-02-28T15:07:25;33.05;;;23.02;;
18217;SDS011;9234;49.344;11.120;2023-02-28T15:10:08;50.85;;;32.50;;
18217;SDS011;9234;49.344;11.120;2023-02-28T15:12:41;27.67;;;19.15;;
18217;SDS011;9234;49.344;11.120;2023-02-28T15:15:20;28.58;;;18.90;;
18217;SDS011;9234;49.344;11.120;2023-02-28T15:18:07;13.32;;;9.35;;
18217;SDS011;9234;49.344;11.120;2023-02-28T15:20:49;36.95;;;25.20;;
18217;SDS011;9234;49.344;11.120;2023-02-28T15:23:18;16.90;;;12.93;;
18217;SDS011;9234;49.344;11.120;2023-02-28T15:25:48;30.50;;;22.23;;
18217;SDS011;9234;49.344;11.120;2023-02-28T15:28:20;11.38;;;9.23;;
18217;SDS011;9234;49.344;11.120;2023-02-28T15:30:52;19.40;;;14.90;;
18217;SDS011;9234;49.344;11.120;2023-02-28T15:33:25;78.65;;;45.22;;
18217;SDS011;9234;49.344;11.120;2023-02-28T15:36:03;11.32;;;7.82;;
18217;SDS011;9234;49.344;11.120;2023-02-28T15:38:42;9.63;;;7.38;;
18217;SDS011;9234;49.344;11.120;2023-02-28T15:41:21;14.52;;;12.20;;
18217;SDS011;9234;49.344;11.120;2023-02-28T15:46:54;13.98;;;9.95;;
18217;SDS011;9234;49.344;11.120;2023-02-28T15:49:34;15.55;;;11.05;;
18217;SDS011;9234;49.344;11.120;2023-02-28T15:52:13;11.80;;;8.15;;